ペトロパブロフスク・カムチャツキー の空港の天気 - METARとTAF

ペトロパブロフスク・カムチャツキー空港 ( UHPP / PKC ) - ロシア ペトロパブロフスク・カムチャツキー
飛行場実況気象(Metar)
観測時間04/19 22:00 MAGT (04/19 11:00 UTC)
風向・風速東 2m/s
視程10km以上
天気現象
なし
気温1℃
湿度75%
気圧1000hPa
METARUHPP 191100Z 09002MPS 9999 NSC 01/M03 Q1000 R34L/CLRD70 NOSIG RMK QFE747/0996
過去の天気等 Google飛行場航空写真 Wunderground天気予報

過去48時間のMETAR

飛行場予報(TAF)
発表時間: 4/19 21:57 MAGT (4/19 10:57 UTC)
予報対象時間: 19日23時 MAGT ~ 21日5時 MAGT
風向・風速北 3m/s 瞬間風速 8m/s
視程10km以上
なし
20日11時 MAGT から
風向・風速北西 3m/s 瞬間風速 12m/s
視程10km以上
全天の4割程度の積乱雲 雲底高度 910m
20日11時 MAGT ~ 20日20時 MAGT に一時的に
風向・風速南 3m/s 瞬間風速 12m/s
TAF UHPP 191057Z 1912/2018 36003G08MPS 9999 NSC
FM200000 32003G12MPS 9999 SCT030CB
TEMPO 2000/2009 18003G12MPS